Time;durP1;ratioP1;P1;durP2;ratioP2;P2;SDS_P1;SDS_P2;PMS_P1;PMS_P2;Temp;Humidity;BMP_temperature;BMP_pressure;BME280_temperature;BME280_humidity;BME280_pressure;Samples;Min_cycle;Max_cycle;Signal;HPM_P1;HPM_P2
2020/12/27 00:01:39;;;;;;;6.38;1.20;;;;;;;5.34;99.32;99809.91;6280816;22;20042;-74
2020/12/27 00:04:04;;;;;;;8.63;1.30;;;;;;;5.33;99.28;99822.03;6253720;22;20037;-74
2020/12/27 00:06:31;;;;;;;6.45;1.65;;;;;;;5.32;99.51;99798.34;6281452;22;20057;-74
2020/12/27 00:08:57;;;;;;;6.72;1.20;;;;;;;5.32;99.62;99801.94;6279930;22;20012;-74
2020/12/27 00:11:23;;;;;;;11.82;1.58;;;;;;;5.33;99.71;99794.50;6252229;22;20014;-74
2020/12/27 00:13:48;;;;;;;5.13;1.25;;;;;;;5.32;99.29;99792.84;6279390;22;20008;-74
2020/12/27 00:16:14;;;;;;;8.63;1.48;;;;;;;5.32;99.38;99774.41;6279720;22;20018;-74
2020/12/27 00:18:40;;;;;;;13.98;1.70;;;;;;;5.34;99.54;99763.09;6278951;22;20080;-74
2020/12/27 00:21:11;;;;;;;9.10;1.10;;;;;;;5.34;99.38;99746.59;6279828;22;20034;-74
2020/12/27 00:23:37;;;;;;;8.82;1.33;;;;;;;5.35;99.64;99749.06;6227565;22;20467;-74
2020/12/27 00:26:12;;;;;;;9.40;1.85;;;;;;;5.37;99.66;99733.06;6251811;22;20077;-74
2020/12/27 00:28:37;;;;;;;7.72;1.42;;;;;;;5.39;99.79;99721.78;6279297;22;20008;-74
2020/12/27 00:31:03;;;;;;;11.13;2.10;;;;;;;5.41;99.75;99716.84;6279601;22;20009;-74
2020/12/27 00:33:28;;;;;;;11.93;1.52;;;;;;;5.39;99.65;99710.78;6278148;22;20011;-74
2020/12/27 00:35:54;;;;;;;9.10;1.50;;;;;;;5.42;99.86;99699.19;6252323;22;20062;-74
2020/12/27 00:38:19;;;;;;;21.95;2.17;;;;;;;5.42;99.67;99684.63;6252165;22;20487;-74
2020/12/27 00:40:45;;;;;;;10.50;2.17;;;;;;;5.43;100.00;99664.22;6251728;22;20014;-74
2020/12/27 00:43:10;;;;;;;9.70;1.60;;;;;;;5.45;100.00;99649.06;6279101;22;20008;-74
2020/12/27 00:45:36;;;;;;;7.78;1.70;;;;;;;5.47;99.83;99641.34;6252099;22;20010;-74
2020/12/27 00:48:01;;;;;;;9.57;1.40;;;;;;;5.46;99.84;99617.69;6278678;22;20004;-74
2020/12/27 00:50:27;;;;;;;5.90;1.15;;;;;;;5.48;99.89;99598.94;6279331;22;20469;-74
2020/12/27 00:52:53;;;;;;;5.53;1.45;;;;;;;5.48;99.91;99598.94;6226723;22;20011;-74
2020/12/27 00:55:18;;;;;;;9.25;1.30;;;;;;;5.52;99.88;99586.25;6251539;22;20007;-74
2020/12/27 00:57:44;;;;;;;7.57;1.70;;;;;;;5.51;99.63;99575.50;6251984;22;20441;-74
2020/12/27 01:00:10;;;;;;;9.93;1.20;;;;;;;5.53;99.69;99568.63;6279019;22;20030;-74
2020/12/27 01:02:35;;;;;;;12.75;1.67;;;;;;;5.53;99.75;99562.28;6278196;22;20007;-74
2020/12/27 01:05:01;;;;;;;8.18;1.58;;;;;;;5.54;99.65;99542.75;6252082;22;19999;-74
2020/12/27 01:07:26;;;;;;;5.28;0.85;;;;;;;5.56;99.63;99534.19;6251892;22;20012;-74
2020/12/27 01:09:52;;;;;;;10.57;1.80;;;;;;;5.57;99.57;99498.09;6278281;22;20015;-74
2020/12/27 01:12:17;;;;;;;12.98;1.55;;;;;;;5.62;99.46;99482.63;6201470;22;20012;-74
2020/12/27 01:14:43;;;;;;;12.35;1.83;;;;;;;5.62;99.77;99466.09;6251936;22;20328;-74
2020/12/27 01:17:09;;;;;;;10.38;1.60;;;;;;;5.62;99.61;99446.81;6251478;22;20038;-74
2020/12/27 01:19:34;;;;;;;7.93;1.25;;;;;;;5.63;99.35;99440.19;6278934;22;20007;-74
2020/12/27 01:22:00;;;;;;;8.15;1.20;;;;;;;5.63;99.38;99452.06;6278281;22;20471;-74
2020/12/27 01:24:25;;;;;;;6.68;1.38;;;;;;;5.64;99.24;99452.88;6226129;22;20466;-74
2020/12/27 01:26:51;;;;;;;6.18;1.08;;;;;;;5.65;99.35;99432.47;6251760;22;19999;-74
2020/12/27 01:29:16;;;;;;;14.63;1.60;;;;;;;5.64;99.39;99415.13;6252076;22;20652;-74
2020/12/27 01:31:42;;;;;;;10.93;1.20;;;;;;;5.66;99.25;99395.56;6278068;22;20007;-74
2020/12/27 01:34:07;;;;;;;6.78;1.00;;;;;;;5.68;99.34;99387.81;6278114;22;20011;-74
2020/12/27 01:36:34;;;;;;;9.20;1.25;;;;;;;5.66;99.23;99379.88;6278576;22;20049;-74
2020/12/27 01:39:00;;;;;;;5.88;1.02;;;;;;;5.66;99.15;99359.75;6251319;22;20008;-74
2020/12/27 01:41:26;;;;;;;7.32;1.17;;;;;;;5.64;98.90;99332.50;6225817;22;20004;-74
2020/12/27 01:43:59;;;;;;;11.55;1.23;;;;;;;5.67;98.88;99347.63;6251964;22;20008;-74
2020/12/27 01:46:25;;;;;;;11.48;1.30;;;;;;;5.65;98.98;99341.56;6251734;22;20126;-74
2020/12/27 01:48:50;;;;;;;10.98;1.20;;;;;;;5.65;98.97;99328.63;6251353;22;20003;-74
2020/12/27 01:51:16;;;;;;;11.13;1.20;;;;;;;5.67;98.87;99320.09;6252364;22;20014;-74
2020/12/27 01:53:42;;;;;;;17.00;1.38;;;;;;;5.66;98.87;99307.44;6278340;22;20008;-74
2020/12/27 01:56:08;;;;;;;8.38;1.23;;;;;;;5.67;98.85;99307.13;6225812;22;20015;-75
2020/12/27 01:58:34;;;;;;;15.93;1.33;;;;;;;5.70;98.75;99297.47;6226260;22;20007;-74
2020/12/27 02:00:59;;;;;;;12.48;1.65;;;;;;;5.68;98.59;99300.50;6226306;22;20034;-74
2020/12/27 02:03:25;;;;;;;9.65;1.60;;;;;;;5.69;98.74;99271.84;6251382;22;20004;-74
2020/12/27 02:05:50;;;;;;;15.52;1.95;;;;;;;5.71;98.71;99288.91;6226313;22;20054;-74
2020/12/27 02:08:19;;;;;;;9.52;1.75;;;;;;;5.71;98.51;99260.53;6251360;22;20019;-74
2020/12/27 02:10:45;;;;;;;11.65;1.63;;;;;;;5.72;98.74;99253.91;6250844;22;20429;-74
2020/12/27 02:13:10;;;;;;;9.52;1.90;;;;;;;5.74;98.49;99254.41;6251459;22;20014;-75
2020/12/27 02:15:36;;;;;;;16.15;1.77;;;;;;;5.73;98.21;99266.56;6278531;22;20004;-74
2020/12/27 02:18:01;;;;;;;12.35;1.80;;;;;;;5.75;98.57;99245.88;6251156;22;20015;-74
2020/12/27 02:20:27;;;;;;;9.30;1.52;;;;;;;5.77;98.29;99223.56;6278220;22;20007;-74
2020/12/27 02:22:52;;;;;;;11.98;1.92;;;;;;;5.76;98.30;99225.47;6251573;22;20007;-74
2020/12/27 02:25:18;;;;;;;14.13;1.65;;;;;;;5.78;98.20;99194.88;6251080;22;20004;-74
2020/12/27 02:27:44;;;;;;;15.40;2.45;;;;;;;5.83;98.36;99189.31;6277766;22;20008;-75
2020/12/27 02:30:09;;;;;;;8.13;1.50;;;;;;;5.80;98.23;99193.47;6251448;22;20008;-74
2020/12/27 02:32:35;;;;;;;10.40;1.90;;;;;;;5.80;97.98;99187.97;6278225;22;20081;-74
2020/12/27 02:35:02;;;;;;;15.20;1.73;;;;;;;5.79;98.07;99175.31;6277185;22;20085;-75
2020/12/27 02:37:27;;;;;;;14.82;1.52;;;;;;;5.82;98.21;99179.38;6278242;22;20011;-74
2020/12/27 02:39:54;;;;;;;13.10;1.65;;;;;;;5.86;97.94;99150.16;6225754;22;20462;-74
2020/12/27 02:42:19;;;;;;;15.93;1.85;;;;;;;5.87;97.81;99160.03;6250654;22;20004;-74
2020/12/27 02:45:09;;;;;;;12.07;1.50;;;;;;;5.87;97.84;99138.00;6277999;22;20014;-74
2020/12/27 02:47:33;;;;;;;15.73;2.38;;;;;;;5.88;97.90;99120.38;6278046;22;20034;-74
2020/12/27 02:49:59;;;;;;;16.15;2.10;;;;;;;5.91;97.86;99089.47;6277994;22;20008;-74
2020/12/27 02:52:24;;;;;;;14.32;2.45;;;;;;;5.93;97.64;99084.47;6251142;22;20061;-74
2020/12/27 02:54:50;;;;;;;15.15;1.75;;;;;;;5.93;97.46;99080.88;6277939;22;20061;-74
2020/12/27 02:57:15;;;;;;;15.85;2.15;;;;;;;5.94;97.38;99066.84;6251098;22;20015;-74
2020/12/27 02:59:41;;;;;;;11.50;1.88;;;;;;;5.94;97.50;99055.81;6250812;22;20012;-74
2020/12/27 03:02:06;;;;;;;10.80;1.90;;;;;;;5.97;97.35;99043.38;6251327;22;20008;-74
2020/12/27 03:04:32;;;;;;;14.95;1.90;;;;;;;6.00;97.33;99042.78;6251347;22;20073;-75
2020/12/27 03:06:57;;;;;;;18.08;1.98;;;;;;;6.04;97.36;99027.28;6278014;22;20368;-74
2020/12/27 03:09:23;;;;;;;12.07;2.03;;;;;;;6.04;97.54;99044.66;6250594;22;20011;-74
2020/12/27 03:11:48;;;;;;;13.88;2.05;;;;;;;6.07;97.25;99042.41;6251104;22;20007;-74
2020/12/27 03:14:14;;;;;;;14.82;2.03;;;;;;;6.11;97.14;99043.44;6277902;22;20030;-74
2020/12/27 03:16:39;;;;;;;17.42;1.98;;;;;;;6.11;97.27;99027.72;6225124;22;20517;-74
2020/12/27 03:19:05;;;;;;;10.32;1.95;;;;;;;6.15;97.26;99016.91;6276634;22;20333;-74
2020/12/27 03:21:30;;;;;;;13.23;2.40;;;;;;;6.17;97.18;99014.69;6250783;22;20030;-74
2020/12/27 03:23:56;;;;;;;12.85;1.98;;;;;;;6.16;97.36;98993.75;6250806;22;20034;-74
2020/12/27 03:26:21;;;;;;;11.18;2.22;;;;;;;6.20;97.11;98998.34;6277558;22;19999;-74
2020/12/27 03:28:47;;;;;;;22.27;2.78;;;;;;;6.23;97.23;98972.09;6251261;22;20012;-74
2020/12/27 03:31:13;;;;;;;15.30;1.95;;;;;;;6.24;97.15;98965.47;6276450;22;20030;-74
2020/12/27 03:33:38;;;;;;;17.58;2.17;;;;;;;6.24;96.93;98954.44;6277122;22;20012;-74
2020/12/27 03:36:04;;;;;;;20.58;2.80;;;;;;;6.28;96.99;98936.19;6278125;22;20500;-74
2020/12/27 03:38:30;;;;;;;17.55;3.08;;;;;;;6.30;97.04;98941.41;6250618;22;20000;-74
2020/12/27 03:40:55;;;;;;;16.95;2.38;;;;;;;6.30;96.77;98916.59;6250664;22;20058;-74
2020/12/27 03:43:21;;;;;;;14.50;2.63;;;;;;;6.32;96.71;98912.38;6277774;22;20367;-74
2020/12/27 03:45:47;;;;;;;16.00;2.40;;;;;;;6.34;96.52;98888.09;6279683;22;19999;-74
2020/12/27 03:48:12;;;;;;;18.35;2.42;;;;;;;6.34;96.60;98866.03;6252752;22;20014;-75
2020/12/27 03:50:39;;;;;;;15.05;2.65;;;;;;;6.37;96.71;98862.66;6279607;22;20008;-74
2020/12/27 03:53:05;;;;;;;23.85;3.35;;;;;;;6.37;96.56;98851.63;6279646;22;20004;-74
2020/12/27 03:55:31;;;;;;;17.27;2.42;;;;;;;6.39;96.74;98848.56;6252003;22;20007;-74
2020/12/27 03:57:56;;;;;;;16.77;2.17;;;;;;;6.42;96.76;98829.47;6252347;22;20079;-74
2020/12/27 04:00:23;;;;;;;25.15;2.95;;;;;;;6.43;96.86;98827.53;6252829;22;20012;-74
2020/12/27 04:02:49;;;;;;;23.30;4.47;;;;;;;6.46;96.82;98821.38;6252813;22;20077;-74
2020/12/27 04:05:14;;;;;;;15.05;2.85;;;;;;;6.47;96.77;98817.53;6252552;22;20007;-74
2020/12/27 04:07:40;;;;;;;15.57;2.55;;;;;;;6.47;96.85;98804.53;6280128;22;20018;-74
2020/12/27 04:10:06;;;;;;;13.48;2.72;;;;;;;6.48;97.06;98772.25;6278765;22;20015;-74
2020/12/27 04:12:31;;;;;;;21.23;2.45;;;;;;;6.51;96.66;98773.59;6252230;22;20383;-74
2020/12/27 04:14:57;;;;;;;20.45;3.03;;;;;;;6.51;96.74;98748.75;6279903;22;20011;-74
2020/12/27 04:17:22;;;;;;;16.65;2.53;;;;;;;6.54;96.91;98740.69;6279209;22;20011;-74
2020/12/27 04:19:48;;;;;;;19.58;2.75;;;;;;;6.56;96.71;98735.69;6279393;22;20012;-74
2020/12/27 04:22:13;;;;;;;17.77;2.78;;;;;;;6.56;96.54;98715.56;6252228;22;20057;-74
2020/12/27 04:24:39;;;;;;;26.80;3.60;;;;;;;6.57;96.74;98717.19;6279242;22;20007;-74
2020/12/27 04:27:04;;;;;;;24.20;3.97;;;;;;;6.58;96.68;98713.31;6226965;22;20325;-75
2020/12/27 04:29:30;;;;;;;22.58;3.70;;;;;;;6.57;96.97;98715.22;6252714;22;20015;-74
2020/12/27 04:31:55;;;;;;;15.20;3.40;;;;;;;6.58;96.70;98705.84;6279866;22;20007;-74
2020/12/27 04:34:21;;;;;;;22.13;3.42;;;;;;;6.59;96.93;98668.03;6278088;22;20008;-74
2020/12/27 04:36:46;;;;;;;22.40;3.38;;;;;;;6.59;96.62;98668.84;6252032;22;20003;-74
2020/12/27 04:39:12;;;;;;;24.52;3.60;;;;;;;6.61;96.90;98660.28;6227298;22;20601;-74
2020/12/27 04:41:37;;;;;;;25.25;3.50;;;;;;;6.59;96.68;98646.78;6278401;22;20010;-74
2020/12/27 04:44:03;;;;;;;64.28;26.52;;;;;;;6.58;96.67;98647.13;6226954;22;20031;-74
2020/12/27 04:46:29;;;;;;;103.82;49.10;;;;;;;6.57;96.61;98648.22;6252655;22;20221;-74
2020/12/27 04:48:55;;;;;;;117.05;53.92;;;;;;;6.53;96.60;98642.53;6202254;22;20004;-75
2020/12/27 04:51:21;;;;;;;113.45;53.38;;;;;;;6.54;96.68;98637.81;6204021;22;20022;-74
2020/12/27 04:53:46;;;;;;;85.10;37.75;;;;;;;6.54;96.97;98635.06;6252898;22;20007;-74
2020/12/27 04:56:12;;;;;;;79.90;32.78;;;;;;;6.54;97.36;98632.31;6226393;22;20027;-74
2020/12/27 04:58:37;;;;;;;66.32;26.40;;;;;;;6.54;97.26;98635.06;6202185;22;20003;-74
2020/12/27 05:01:03;;;;;;;63.38;26.13;;;;;;;6.54;97.61;98611.06;6252743;22;20007;-74
2020/12/27 05:03:29;;;;;;;51.25;19.33;;;;;;;6.54;97.86;98618.50;6227496;22;20003;-74
2020/12/27 05:05:55;;;;;;;45.15;16.45;;;;;;;6.53;98.35;98609.44;6228099;22;20000;-74
2020/12/27 05:08:21;;;;;;;43.42;14.88;;;;;;;6.51;98.40;98586.84;6254241;22;20033;-74
2020/12/27 05:10:47;;;;;;;32.58;11.75;;;;;;;6.53;98.44;98561.75;6280492;22;20310;-74
2020/12/27 05:13:13;;;;;;;32.33;9.75;;;;;;;6.54;99.09;98558.66;6279815;22;20007;-74
2020/12/27 05:15:39;;;;;;;31.05;8.05;;;;;;;6.54;99.42;98544.06;6278989;22;20011;-74
2020/12/27 05:18:05;;;;;;;29.50;7.38;;;;;;;6.55;99.41;98548.47;6279899;22;20010;-74
2020/12/27 05:20:43;;;;;;;32.75;7.15;;;;;;;6.53;99.63;98534.97;6228480;22;20012;-74
2020/12/27 05:23:09;;;;;;;28.33;6.15;;;;;;;6.55;99.65;98529.16;6278574;22;20019;-74
2020/12/27 05:25:41;;;;;;;22.00;5.25;;;;;;;6.55;99.67;98520.88;6251973;22;20381;-74
2020/12/27 05:28:07;;;;;;;26.15;5.20;;;;;;;6.55;99.57;98507.09;6280379;22;20000;-74
2020/12/27 05:30:33;;;;;;;27.55;5.47;;;;;;;6.54;99.77;98499.94;6252679;22;20011;-75
2020/12/27 05:32:59;;;;;;;25.25;5.22;;;;;;;6.54;99.65;98483.38;6254962;22;20008;-74
2020/12/27 05:35:24;;;;;;;29.90;4.78;;;;;;;6.54;100.00;98488.88;6253880;22;20074;-74
2020/12/27 05:37:50;;;;;;;26.85;4.13;;;;;;;6.54;100.00;98477.88;6253588;22;20057;-74
2020/12/27 05:40:16;;;;;;;26.77;3.72;;;;;;;6.57;100.00;98463.44;6252837;22;20006;-74
2020/12/27 05:42:43;;;;;;;21.25;4.13;;;;;;;6.56;100.00;98431.47;6252962;22;20031;-74
2020/12/27 05:45:17;;;;;;;31.80;5.00;;;;;;;6.57;100.00;98419.31;6226588;22;20004;-74
2020/12/27 05:47:43;;;;;;;27.25;3.80;;;;;;;6.56;100.00;98414.94;6278990;22;20004;-73
2020/12/27 05:50:16;;;;;;;22.38;3.92;;;;;;;6.58;100.00;98396.94;6251969;22;20015;-74
2020/12/27 05:52:46;;;;;;;26.60;3.55;;;;;;;6.57;100.00;98387.03;6279302;22;20000;-74
2020/12/27 05:55:19;;;;;;;22.90;4.03;;;;;;;6.59;100.00;98389.47;6226317;22;20003;-74
2020/12/27 05:57:49;;;;;;;21.02;3.88;;;;;;;6.59;100.00;98368.22;6278601;22;20035;-74
2020/12/27 06:00:19;;;;;;;25.02;3.88;;;;;;;6.59;100.00;98361.88;6252766;22;20024;-74
2020/12/27 06:02:45;;;;;;;22.25;3.75;;;;;;;6.60;100.00;98335.94;6252976;22;20008;-74
2020/12/27 06:05:12;;;;;;;18.73;3.42;;;;;;;6.62;100.00;98293.09;6252666;22;20014;-74
2020/12/27 06:07:39;;;;;;;22.67;3.70;;;;;;;6.62;100.00;98326.19;6278316;22;20007;-75
2020/12/27 06:10:06;;;;;;;21.98;3.33;;;;;;;6.63;100.00;98310.47;6278395;22;20004;-75
2020/12/27 06:13:02;;;;;;;19.10;3.28;;;;;;;6.65;100.00;98322.00;6251308;22;20003;-74
2020/12/27 06:15:29;;;;;;;17.58;3.33;;;;;;;6.64;100.00;98298.31;6277942;22;20337;-74
2020/12/27 06:17:58;;;;;;;25.05;3.55;;;;;;;6.64;100.00;98285.31;6252248;22;20027;-74
2020/12/27 06:20:23;;;;;;;23.90;3.58;;;;;;;6.66;100.00;98282.25;6278634;22;20007;-74
2020/12/27 06:22:50;;;;;;;17.42;3.17;;;;;;;6.66;100.00;98249.16;6226520;22;20354;-74
2020/12/27 06:25:16;;;;;;;18.67;3.08;;;;;;;6.68;100.00;98258.72;6278636;22;20038;-74
2020/12/27 06:27:42;;;;;;;20.50;3.85;;;;;;;6.71;100.00;98246.22;6252348;22;20099;-74
2020/12/27 06:30:12;;;;;;;21.05;3.25;;;;;;;6.72;100.00;98228.56;6251715;22;20007;-74
2020/12/27 06:32:46;;;;;;;21.13;3.42;;;;;;;6.73;100.00;98224.66;6278463;22;20011;-74
2020/12/27 06:35:11;;;;;;;20.45;3.25;;;;;;;6.77;100.00;98200.81;6251501;22;20022;-74
2020/12/27 06:37:44;;;;;;;24.52;3.67;;;;;;;6.75;100.00;98199.50;6279853;22;20035;-75
2020/12/27 06:40:10;;;;;;;;;;;;;;;6.76;100.00;98207.44;6254097;22;20065;-74
2020/12/27 06:42:36;;;;;;;25.60;3.33;;;;;;;6.77;100.00;98178.75;6278027;22;19907;-74
2020/12/27 06:45:02;;;;;;;19.55;3.60;;;;;;;6.78;100.00;98171.25;6278178;22;20008;-74
2020/12/27 06:47:50;;;;;;;21.20;3.08;;;;;;;6.76;100.00;98160.53;6277453;22;20380;-74
2020/12/27 06:50:19;;;;;;;19.58;3.25;;;;;;;6.79;100.00;98125.97;6277700;22;20004;-74
2020/12/27 06:52:45;;;;;;;23.42;3.85;;;;;;;6.78;100.00;98119.66;6277032;22;20460;-74
2020/12/27 06:55:11;;;;;;;25.17;3.53;;;;;;;6.79;100.00;98118.50;6250662;22;20077;-74
2020/12/27 06:57:41;;;;;;;20.80;3.28;;;;;;;6.79;100.00;98098.38;6250339;22;20094;-74
2020/12/27 07:00:26;;;;;;;18.65;3.70;;;;;;;6.80;100.00;98078.75;6251117;22;20053;-74
2020/12/27 07:03:09;;;;;;;19.80;3.50;;;;;;;6.81;100.00;98074.84;6251650;22;20015;-74
2020/12/27 07:05:36;;;;;;;22.87;3.40;;;;;;;6.81;100.00;98052.78;6278071;22;19999;-74
2020/12/27 07:08:03;;;;;;;18.88;3.58;;;;;;;6.83;100.00;98041.44;6250744;22;20295;-74
2020/12/27 07:10:35;;;;;;;27.23;2.85;;;;;;;6.85;100.00;98031.69;6277459;22;20094;-74
2020/12/27 07:13:03;;;;;;;19.88;3.17;;;;;;;6.85;100.00;98008.78;6251048;22;20451;-74
2020/12/27 07:15:29;;;;;;;18.30;3.05;;;;;;;6.84;100.00;98001.66;6250606;22;20018;-74
2020/12/27 07:17:55;;;;;;;18.45;2.72;;;;;;;6.84;100.00;98005.22;6278839;22;20008;-74
2020/12/27 07:20:21;;;;;;;18.85;3.03;;;;;;;6.86;100.00;97983.63;6253797;22;20011;-74
2020/12/27 07:22:53;;;;;;;17.30;3.25;;;;;;;6.84;100.00;97979.59;6253095;22;20068;-74
2020/12/27 07:25:19;;;;;;;24.70;3.47;;;;;;;6.83;100.00;97967.75;6252112;22;20012;-74
2020/12/27 07:27:44;;;;;;;18.15;3.00;;;;;;;6.84;100.00;97969.34;6227490;22;20018;-74
2020/12/27 07:30:10;;;;;;;17.30;3.20;;;;;;;6.82;100.00;97944.03;6252775;22;20003;-74
2020/12/27 07:32:47;;;;;;;22.45;3.53;;;;;;;6.85;100.00;97953.59;6227396;22;20007;-74
2020/12/27 07:35:13;;;;;;;16.83;3.30;;;;;;;6.84;100.00;97950.03;6252641;22;20003;-74
2020/12/27 07:37:38;;;;;;;20.98;3.63;;;;;;;6.84;100.00;97944.53;6279975;22;20322;-75
2020/12/27 07:40:05;;;;;;;26.60;4.15;;;;;;;6.83;100.00;97948.44;6226889;22;20050;-74
2020/12/27 07:42:31;;;;;;;26.63;3.50;;;;;;;6.84;100.00;97905.91;6252300;22;20007;-75
2020/12/27 07:44:59;;;;;;;21.27;3.65;;;;;;;6.84;100.00;97891.31;6253250;22;20036;-74
2020/12/27 07:47:25;;;;;;;20.77;3.17;;;;;;;6.84;100.00;97892.13;6252588;22;20004;-74
2020/12/27 07:50:13;;;;;;;23.10;3.00;;;;;;;6.84;100.00;97894.88;6252694;22;20008;-74
2020/12/27 07:52:49;;;;;;;21.58;3.20;;;;;;;6.84;100.00;97891.31;6279743;22;20588;-74
2020/12/27 07:55:37;;;;;;;21.50;3.15;;;;;;;6.84;100.00;97881.06;6252607;22;20003;-74
2020/12/27 07:58:06;;;;;;;17.40;3.20;;;;;;;6.86;100.00;97875.25;6228125;22;20559;-74
2020/12/27 08:00:33;;;;;;;20.85;2.88;;;;;;;6.84;100.00;97875.56;6279363;22;20468;-74
2020/12/27 08:03:09;;;;;;;18.75;3.13;;;;;;;6.85;100.00;97843.25;6279861;22;20038;-74
2020/12/27 08:05:35;;;;;;;23.10;3.08;;;;;;;6.83;100.00;97827.06;6252748;22;20004;-74
2020/12/27 08:08:08;;;;;;;20.25;2.80;;;;;;;6.85;100.00;97833.06;6279112;22;20016;-74
2020/12/27 08:10:34;;;;;;;19.70;2.72;;;;;;;6.85;100.00;97823.94;6252853;22;20007;-74
2020/12/27 08:13:01;;;;;;;19.83;3.17;;;;;;;6.85;100.00;97783.41;6227505;22;20004;-74
2020/12/27 08:15:27;;;;;;;22.95;3.22;;;;;;;6.84;100.00;97792.78;6227300;22;20004;-74
2020/12/27 08:18:00;;;;;;;17.35;2.30;;;;;;;6.85;100.00;97777.88;6279598;22;20484;-74
2020/12/27 08:20:27;;;;;;;21.27;2.60;;;;;;;6.88;100.00;97790.16;6277981;22;20065;-74
2020/12/27 08:23:06;;;;;;;24.02;3.08;;;;;;;6.85;100.00;97761.31;6253244;22;20505;-75
2020/12/27 08:25:36;;;;;;;14.05;2.70;;;;;;;6.87;100.00;97749.94;6279096;22;20030;-75
2020/12/27 08:28:03;;;;;;;22.88;3.13;;;;;;;6.85;100.00;97736.50;6252917;22;20119;-74
2020/12/27 08:30:28;;;;;;;20.45;3.78;;;;;;;6.85;100.00;97733.75;6279193;22;20007;-75
2020/12/27 08:33:11;;;;;;;86.05;27.60;;;;;;;6.83;100.00;97715.91;6227031;22;20003;-74
2020/12/27 08:35:37;;;;;;;61.55;16.83;;;;;;;6.83;100.00;97694.63;6251878;22;20085;-74
2020/12/27 08:38:14;;;;;;;39.90;12.95;;;;;;;6.85;100.00;97705.31;6251913;22;20402;-74
2020/12/27 08:40:40;;;;;;;44.97;13.68;;;;;;;6.83;100.00;97691.88;6228329;22;20008;-74
2020/12/27 08:43:09;;;;;;;44.08;11.30;;;;;;;6.86;100.00;97673.84;6226001;22;20004;-74
2020/12/27 08:45:34;;;;;;;34.75;8.75;;;;;;;6.85;100.00;97678.56;6252218;22;20075;-74
2020/12/27 08:48:10;;;;;;;33.97;7.78;;;;;;;6.84;100.00;97646.59;6227174;22;20008;-74
2020/12/27 08:50:36;;;;;;;35.25;7.88;;;;;;;6.86;100.00;97616.72;6253049;22;20310;-74
2020/12/27 08:53:02;;;;;;;24.30;5.38;;;;;;;6.87;100.00;97621.06;6226759;22;20015;-74
2020/12/27 08:55:29;;;;;;;29.30;5.22;;;;;;;6.88;100.00;97616.34;6252516;22;20474;-74
2020/12/27 08:57:55;;;;;;;25.60;4.57;;;;;;;6.89;100.00;97602.22;6252931;22;20034;-74
2020/12/27 09:00:21;;;;;;;22.15;4.40;;;;;;;6.89;100.00;97606.94;6254465;22;20333;-75
2020/12/27 09:02:57;;;;;;;20.60;3.25;;;;;;;6.90;100.00;97580.97;6255344;22;20008;-75
2020/12/27 09:05:35;;;;;;;17.83;3.55;;;;;;;6.92;100.00;97551.88;6254255;22;20014;-74
2020/12/27 09:08:01;;;;;;;20.70;3.60;;;;;;;6.93;100.00;97516.81;6279629;22;20451;-74
2020/12/27 09:10:28;;;;;;;26.05;3.78;;;;;;;6.93;100.00;97514.88;6252436;22;20010;-74
2020/12/27 09:13:02;;;;;;;18.63;2.90;;;;;;;6.93;100.00;97514.88;6279742;22;20007;-75
2020/12/27 09:15:38;;;;;;;21.10;4.15;;;;;;;6.94;100.00;97510.97;6227511;22;20004;-75
2020/12/27 09:18:08;;;;;;;19.55;3.22;;;;;;;6.93;100.00;97509.34;6252762;22;20318;-75
2020/12/27 09:20:41;;;;;;;20.00;3.08;;;;;;;6.96;100.00;97490.50;6253514;22;20003;-74
2020/12/27 09:23:20;;;;;;;17.25;3.35;;;;;;;6.97;100.00;97464.53;6253650;22;20008;-75
2020/12/27 09:25:46;;;;;;;22.42;3.85;;;;;;;6.97;100.00;97486.63;6277521;22;20003;-74
2020/12/27 09:28:19;;;;;;;20.08;3.25;;;;;;;6.97;100.00;97454.31;6251938;22;20521;-74
2020/12/27 09:31:05;;;;;;;16.95;2.80;;;;;;;6.96;100.00;97441.63;6280007;22;20007;-75
2020/12/27 09:33:31;;;;;;;19.45;3.88;;;;;;;6.97;100.00;97457.06;6251996;22;20004;-74
2020/12/27 09:35:57;;;;;;;18.02;3.08;;;;;;;6.97;100.00;97436.94;6226530;22;20375;-74
2020/12/27 09:38:24;;;;;;;16.73;3.00;;;;;;;6.99;100.00;97429.91;6227291;22;20004;-74
2020/12/27 09:41:11;;;;;;;28.75;3.33;;;;;;;7.01;100.00;97424.06;6252819;22;20008;-74
2020/12/27 09:43:54;;;;;;;22.55;3.15;;;;;;;7.00;100.00;97409.47;6280254;22;20011;-74
2020/12/27 09:46:41;;;;;;;17.90;2.77;;;;;;;7.01;100.00;97402.78;6252871;22;20019;-74
2020/12/27 09:49:17;;;;;;;23.98;2.67;;;;;;;7.04;100.00;97374.50;6279790;22;20003;-75
2020/12/27 09:51:42;;;;;;;24.02;3.50;;;;;;;7.05;100.00;97380.81;6279692;22;20110;-74
2020/12/27 09:54:08;;;;;;;27.42;3.45;;;;;;;7.05;100.00;97378.88;6280052;22;20016;-74
2020/12/27 09:56:41;;;;;;;22.30;3.85;;;;;;;7.07;100.00;97384.84;6252439;22;20003;-74
2020/12/27 09:59:07;;;;;;;28.63;3.55;;;;;;;7.07;100.00;97378.53;6202262;22;20035;-74
2020/12/27 10:01:33;;;;;;;25.65;3.13;;;;;;;7.08;100.00;97380.16;6252503;22;20008;-74
2020/12/27 10:03:58;;;;;;;25.33;3.47;;;;;;;7.08;100.00;97388.44;6252855;22;20000;-74
2020/12/27 10:06:24;;;;;;;20.27;3.92;;;;;;;7.09;100.00;97406.56;6279237;22;20007;-74
2020/12/27 10:08:50;;;;;;;19.55;3.15;;;;;;;7.10;100.00;97452.34;6227408;22;20020;-74
2020/12/27 10:11:15;;;;;;;24.33;4.47;;;;;;;7.11;100.00;97509.16;6226992;22;20354;-74
2020/12/27 10:13:41;;;;;;;20.77;3.28;;;;;;;7.12;100.00;97505.22;6227282;22;20004;-75
2020/12/27 10:16:07;;;;;;;9.73;1.77;;;;;;;7.06;100.00;97499.13;6226887;22;20004;-74
2020/12/27 10:18:33;;;;;;;10.63;1.40;;;;;;;7.01;100.00;97479.25;6226398;22;20310;-74
2020/12/27 10:20:59;;;;;;;6.60;1.10;;;;;;;6.90;100.00;97454.84;6250929;22;20012;-73
2020/12/27 10:23:24;;;;;;;7.97;1.30;;;;;;;6.82;100.00;97447.50;6225070;22;20015;-74
2020/12/27 10:25:50;;;;;;;6.53;1.42;;;;;;;6.70;99.31;97439.22;6277956;22;20003;-74
2020/12/27 10:28:15;;;;;;;5.25;0.90;;;;;;;6.63;99.08;97438.97;6250811;22;20003;-74
2020/12/27 10:30:41;;;;;;;6.30;1.10;;;;;;;6.54;99.18;97436.31;6251172;22;20007;-74
2020/12/27 10:33:06;;;;;;;3.95;1.00;;;;;;;6.46;99.22;97424.28;6276912;22;20034;-74
2020/12/27 10:35:32;;;;;;;4.18;1.00;;;;;;;6.39;99.24;97415.75;6249891;22;20011;-74
2020/12/27 10:37:57;;;;;;;4.22;1.00;;;;;;;6.34;99.27;97410.44;6251030;22;20095;-74
2020/12/27 10:40:23;;;;;;;2.72;1.00;;;;;;;6.28;99.59;97395.28;6277974;22;20003;-74
2020/12/27 10:42:48;;;;;;;5.20;0.82;;;;;;;6.26;99.56;97372.75;6278444;22;20015;-74
2020/12/27 10:45:14;;;;;;;4.15;1.00;;;;;;;6.19;99.68;97375.28;6278149;22;20429;-74
2020/12/27 10:47:41;;;;;;;2.40;0.57;;;;;;;6.18;99.78;97370.91;6251434;22;20078;-73
2020/12/27 10:50:07;;;;;;;2.97;1.25;;;;;;;6.14;99.93;97356.22;6251856;22;20425;-73
2020/12/27 10:52:32;;;;;;;4.22;1.10;;;;;;;6.13;99.93;97355.44;6250884;22;20008;-74
2020/12/27 10:54:58;;;;;;;4.03;1.00;;;;;;;6.13;100.00;97354.59;6251163;22;20003;-74
2020/12/27 10:57:24;;;;;;;2.55;0.80;;;;;;;6.11;100.00;97343.13;6278359;22;20004;-73
2020/12/27 10:59:49;;;;;;;4.18;1.08;;;;;;;6.09;100.00;97334.41;6277775;22;20008;-74
2020/12/27 11:02:14;;;;;;;3.65;1.00;;;;;;;6.09;100.00;97326.13;6250931;22;20007;-73
2020/12/27 11:04:40;;;;;;;3.35;1.30;;;;;;;6.08;100.00;97310.75;6251306;22;20067;-74
2020/12/27 11:07:06;;;;;;;7.88;2.63;;;;;;;6.08;100.00;97310.75;6226016;22;20008;-74
2020/12/27 11:09:31;;;;;;;5.50;2.70;;;;;;;6.08;100.00;97294.22;6275425;22;20019;-74
2020/12/27 11:11:57;;;;;;;10.02;3.25;;;;;;;6.07;100.00;97290.66;6250841;22;20011;-74
2020/12/27 11:14:23;;;;;;;7.25;2.72;;;;;;;6.07;100.00;97293.41;6277058;22;20080;-74
2020/12/27 11:16:48;;;;;;;6.38;2.63;;;;;;;6.09;100.00;97287.56;6225444;22;20437;-73
2020/12/27 11:19:14;;;;;;;7.82;2.50;;;;;;;6.09;100.00;97282.84;6278119;22;20603;-73
2020/12/27 11:21:47;;;;;;;7.13;2.90;;;;;;;6.10;100.00;97269.88;6251071;22;20012;-74
2020/12/27 11:24:14;;;;;;;7.03;2.50;;;;;;;6.11;100.00;97269.53;6225492;22;20000;-74
2020/12/27 11:26:40;;;;;;;7.15;2.50;;;;;;;6.13;100.00;97277.44;6225455;22;20018;-73
2020/12/27 11:29:05;;;;;;;5.57;2.30;;;;;;;6.15;100.00;97267.69;6251572;22;20336;-73
2020/12/27 11:31:31;;;;;;;6.18;2.80;;;;;;;6.14;100.00;97260.59;6277508;22;20499;-73
2020/12/27 11:33:56;;;;;;;22.88;11.35;;;;;;;6.16;100.00;97243.72;6249974;22;20010;-74